createdAt,value
2017-04-06T00:00:36.270Z,1004.38
2017-04-06T00:01:36.304Z,1004.36
2017-04-06T00:02:36.338Z,1004.37
2017-04-06T00:03:36.370Z,1004.37
2017-04-06T00:04:36.404Z,1004.38
2017-04-06T00:05:36.439Z,1004.34
2017-04-06T00:06:36.474Z,1004.26
2017-04-06T00:07:36.506Z,1004.27
2017-04-06T00:08:36.543Z,1004.3
2017-04-06T00:09:36.574Z,1004.32
2017-04-06T00:10:36.607Z,1004.34
2017-04-06T00:11:36.643Z,1004.29
2017-04-06T00:12:36.675Z,1004.29
2017-04-06T00:13:36.709Z,1004.28
2017-04-06T00:14:36.745Z,1004.24
2017-04-06T00:15:36.776Z,1004.29
2017-04-06T00:16:36.811Z,1004.27
2017-04-06T00:17:36.846Z,1004.26
2017-04-06T00:18:36.880Z,1004.22
2017-04-06T00:19:36.912Z,1004.23
2017-04-06T00:20:36.948Z,1004.23
2017-04-06T00:21:36.982Z,1004.21
2017-04-06T00:22:37.013Z,1004.19
2017-04-06T00:23:37.049Z,1004.23
2017-04-06T00:24:37.083Z,1004.26
2017-04-06T00:25:37.116Z,1004.28
2017-04-06T00:26:37.149Z,1004.2
2017-04-06T00:27:37.182Z,1004.16
2017-04-06T00:28:37.218Z,1004.13
2017-04-06T00:29:37.253Z,1004.11
2017-04-06T00:30:37.286Z,1004.11
2017-04-06T00:31:37.319Z,1004.14
2017-04-06T00:32:37.353Z,1004.14
2017-04-06T00:33:37.387Z,1004.2
2017-04-06T00:34:37.422Z,1004.2
2017-04-06T00:35:37.455Z,1004.12
2017-04-06T00:36:37.489Z,1004.07
2017-04-06T00:37:37.522Z,1004.03
2017-04-06T00:38:37.557Z,1004.03
2017-04-06T00:39:37.588Z,1004.04
2017-04-06T00:40:37.624Z,1004.05
2017-04-06T00:41:37.657Z,1004.05
2017-04-06T00:42:37.690Z,1004.02
2017-04-06T00:43:37.724Z,1003.97
2017-04-06T00:44:37.757Z,1003.95
2017-04-06T00:45:37.792Z,1003.94
2017-04-06T00:46:37.825Z,1003.94
2017-04-06T00:47:37.860Z,1003.91
2017-04-06T00:48:37.894Z,1003.9
2017-04-06T00:49:37.926Z,1003.88
2017-04-06T00:50:37.960Z,1003.86
2017-04-06T00:51:37.993Z,1003.87
2017-04-06T00:52:38.029Z,1003.81
2017-04-06T00:53:38.063Z,1003.86
2017-04-06T00:54:38.095Z,1003.88
2017-04-06T00:55:38.131Z,1003.84
2017-04-06T00:56:38.166Z,1003.77
2017-04-06T00:57:38.199Z,1003.75
2017-04-06T00:58:38.233Z,1003.78
2017-04-06T00:59:38.266Z,1003.77
2017-04-06T01:00:38.300Z,1003.83
2017-04-06T01:01:38.334Z,1003.86
2017-04-06T01:02:38.366Z,1003.79
2017-04-06T01:03:38.402Z,1003.85
2017-04-06T01:04:38.435Z,1003.87
2017-04-06T01:05:38.467Z,1003.81
2017-04-06T01:06:38.504Z,1003.78
2017-04-06T01:07:38.538Z,1003.79
2017-04-06T01:08:38.572Z,1003.79
2017-04-06T01:09:38.605Z,1003.82
2017-04-06T01:10:38.638Z,1003.74
2017-04-06T01:11:38.674Z,1003.75
2017-04-06T01:12:38.705Z,1003.75
2017-04-06T01:13:38.741Z,1003.78
2017-04-06T01:14:38.774Z,1003.69
2017-04-06T01:15:38.810Z,1003.73
2017-04-06T01:16:38.842Z,1003.75
2017-04-06T01:17:38.877Z,1003.79
2017-04-06T01:18:38.909Z,1003.77
2017-04-06T01:19:38.946Z,1003.74
2017-04-06T01:20:38.979Z,1003.8
2017-04-06T01:21:39.011Z,1003.74
2017-04-06T01:22:39.047Z,1003.77
2017-04-06T01:23:39.079Z,1003.79
2017-04-06T01:24:39.142Z,1003.73
2017-04-06T01:25:39.149Z,1003.77
2017-04-06T01:26:39.185Z,1003.8
2017-04-06T01:27:39.217Z,1003.76
2017-04-06T01:28:39.249Z,1003.73
2017-04-06T01:29:39.284Z,1003.73
2017-04-06T01:30:39.320Z,1003.76
2017-04-06T01:31:39.352Z,1003.73
2017-04-06T01:32:39.385Z,1003.71
2017-04-06T01:33:39.421Z,1003.73
2017-04-06T01:34:39.453Z,1003.72
2017-04-06T01:35:39.487Z,1003.74
2017-04-06T01:36:39.523Z,1003.75
2017-04-06T01:37:39.558Z,1003.75
2017-04-06T01:38:39.588Z,1003.84
2017-04-06T01:39:39.623Z,1003.74
2017-04-06T01:40:39.658Z,1003.76
2017-04-06T01:41:39.693Z,1003.74
2017-04-06T01:42:39.724Z,1003.74
2017-04-06T01:43:39.761Z,1003.75
2017-04-06T01:44:39.795Z,1003.67
2017-04-06T01:45:39.832Z,1003.77
2017-04-06T01:46:39.861Z,1003.71
2017-04-06T01:47:39.896Z,1003.72
2017-04-06T01:48:39.931Z,1003.79
2017-04-06T01:49:39.966Z,1003.83
2017-04-06T01:50:39.999Z,1003.82
2017-04-06T01:51:40.031Z,1003.76
2017-04-06T01:52:40.067Z,1003.82
2017-04-06T01:53:40.097Z,1003.76
2017-04-06T01:54:40.134Z,1003.77
2017-04-06T01:55:40.167Z,1003.84
2017-04-06T01:56:40.200Z,1003.78
2017-04-06T01:57:40.234Z,1003.77
2017-04-06T01:58:40.270Z,1003.8
2017-04-06T01:59:40.303Z,1003.8
2017-04-06T02:00:40.337Z,1003.77
2017-04-06T02:01:40.372Z,1003.82
2017-04-06T02:02:40.407Z,1003.77
2017-04-06T02:03:40.439Z,1003.75
2017-04-06T02:04:40.476Z,1003.74
2017-04-06T02:05:40.509Z,1003.7
2017-04-06T02:06:40.541Z,1003.71
2017-04-06T02:07:40.576Z,1003.77
2017-04-06T02:08:40.609Z,1003.73
2017-04-06T02:09:40.642Z,1003.72
2017-04-06T02:10:40.677Z,1003.72
2017-04-06T02:11:40.712Z,1003.71
2017-04-06T02:12:40.744Z,1003.73
2017-04-06T02:13:40.780Z,1003.69
2017-04-06T02:14:40.813Z,1003.69
2017-04-06T02:15:40.847Z,1003.76
2017-04-06T02:16:40.883Z,1003.78
2017-04-06T02:17:40.914Z,1003.81
2017-04-06T02:18:40.948Z,1003.76
2017-04-06T02:19:40.984Z,1003.74
2017-04-06T02:20:41.018Z,1003.78
2017-04-06T02:21:41.050Z,1003.8
2017-04-06T02:22:41.083Z,1003.79
2017-04-06T02:23:41.118Z,1003.79
2017-04-06T02:24:41.152Z,1003.81
2017-04-06T02:25:41.187Z,1003.85
2017-04-06T02:26:41.223Z,1003.83
2017-04-06T02:27:41.254Z,1003.84
2017-04-06T02:28:41.291Z,1003.82
2017-04-06T02:29:41.324Z,1003.9
2017-04-06T02:30:41.355Z,1003.89
2017-04-06T02:31:41.393Z,1003.94
2017-04-06T02:32:41.426Z,1003.85
2017-04-06T02:33:41.457Z,1003.94
2017-04-06T02:34:41.494Z,1003.88
2017-04-06T02:35:41.528Z,1003.96
2017-04-06T02:36:41.559Z,1003.93
2017-04-06T02:37:41.593Z,1004.04
2017-04-06T02:38:41.629Z,1004.01
2017-04-06T02:39:41.661Z,1003.94
2017-04-06T02:40:41.696Z,1004.01
2017-04-06T02:41:41.729Z,1003.99
2017-04-06T02:42:41.763Z,1004
2017-04-06T02:43:41.800Z,1004.04
2017-04-06T02:44:41.833Z,1004.04
2017-04-06T02:45:41.864Z,1004.01
2017-04-06T02:46:41.910Z,1004.11
2017-04-06T02:47:41.932Z,1004.13
2017-04-06T02:48:41.968Z,1004.08
2017-04-06T02:49:42.002Z,1004.11
2017-04-06T02:50:42.036Z,1004.1
2017-04-06T02:51:42.070Z,1004.07
2017-04-06T02:52:42.104Z,1004.12
2017-04-06T02:53:42.141Z,1004.16
2017-04-06T02:54:42.169Z,1004.16
2017-04-06T02:55:42.210Z,1004.2
2017-04-06T02:56:42.240Z,1004.21
2017-04-06T02:57:42.274Z,1004.15
2017-04-06T02:58:42.305Z,1004.13
2017-04-06T02:59:42.340Z,1004.14
2017-04-06T03:00:42.374Z,1004.21
2017-04-06T03:01:42.408Z,1004.13
2017-04-06T03:02:42.443Z,1004.19
2017-04-06T03:03:42.475Z,1004.16
2017-04-06T03:04:42.512Z,1004.21
2017-04-06T03:05:42.546Z,1004.19
2017-04-06T03:06:42.580Z,1004.21
2017-04-06T03:07:42.613Z,1004.19
2017-04-06T03:08:42.647Z,1004.23
2017-04-06T03:09:42.681Z,1004.25
2017-04-06T03:10:42.716Z,1004.19
2017-04-06T03:11:42.748Z,1004.18
2017-04-06T03:12:42.783Z,1004.19
2017-04-06T03:13:42.819Z,1004.18
2017-04-06T03:14:42.851Z,1004.22
2017-04-06T03:15:42.883Z,1004.18
2017-04-06T03:16:42.919Z,1004.17
2017-04-06T03:17:42.951Z,1004.19
2017-04-06T03:18:42.985Z,1004.13
2017-04-06T03:19:43.019Z,1004.18
2017-04-06T03:20:43.052Z,1004.14
2017-04-06T03:21:43.089Z,1004.21
2017-04-06T03:22:43.120Z,1004.19
2017-04-06T03:23:43.158Z,1004.15
2017-04-06T03:24:43.191Z,1004.19
2017-04-06T03:25:43.225Z,1004.17
2017-04-06T03:26:43.258Z,1004.16
2017-04-06T03:27:43.292Z,1004.16
2017-04-06T03:28:43.324Z,1004.18
2017-04-06T03:29:43.358Z,1004.14
2017-04-06T03:30:43.394Z,1004.18
2017-04-06T03:31:43.427Z,1004.22
2017-04-06T03:32:43.461Z,1004.2
2017-04-06T03:33:43.493Z,1004.15
2017-04-06T03:34:43.530Z,1004.22
2017-04-06T03:35:43.563Z,1004.2
2017-04-06T03:36:43.596Z,1004.22
2017-04-06T03:37:43.633Z,1004.19
2017-04-06T03:38:43.663Z,1004.22
2017-04-06T03:39:43.699Z,1004.11
2017-04-06T03:40:43.733Z,1004.2
2017-04-06T03:41:43.765Z,1004.22
2017-04-06T03:42:43.801Z,1004.17
2017-04-06T03:43:43.833Z,1004.19
2017-04-06T03:44:43.869Z,1004.24
2017-04-06T03:45:43.901Z,1004.26
2017-04-06T03:46:43.935Z,1004.22
2017-04-06T03:47:43.968Z,1004.24
2017-04-06T03:48:44.004Z,1004.21
2017-04-06T03:49:44.035Z,1004.22
2017-04-06T03:50:44.069Z,1004.3
2017-04-06T03:51:44.108Z,1004.26
2017-04-06T03:52:44.137Z,1004.21
2017-04-06T03:53:44.171Z,1004.25
2017-04-06T03:54:44.205Z,1004.22
2017-04-06T03:55:44.237Z,1004.23
2017-04-06T03:56:44.271Z,1004.29
2017-04-06T03:57:44.304Z,1004.28
2017-04-06T03:58:44.337Z,1004.31
2017-04-06T03:59:44.373Z,1004.32
2017-04-06T04:00:44.404Z,1004.3
2017-04-06T04:01:44.438Z,1004.37
2017-04-06T04:02:44.470Z,1004.4
2017-04-06T04:03:44.507Z,1004.43
2017-04-06T04:04:44.537Z,1004.46
2017-04-06T04:05:44.573Z,1004.44
2017-04-06T04:06:44.606Z,1004.49
2017-04-06T04:07:44.641Z,1004.42
2017-04-06T04:08:44.672Z,1004.44
2017-04-06T04:09:44.705Z,1004.45
2017-04-06T04:10:44.739Z,1004.49
2017-04-06T04:11:44.773Z,1004.5
2017-04-06T04:12:44.807Z,1004.58
2017-04-06T04:13:44.841Z,1004.56
2017-04-06T04:14:44.872Z,1004.55
2017-04-06T04:15:44.907Z,1004.57
2017-04-06T04:16:44.940Z,1004.56
2017-04-06T04:17:44.974Z,1004.57
2017-04-06T04:18:45.006Z,1004.57
2017-04-06T04:19:45.038Z,1004.55
2017-04-06T04:20:45.075Z,1004.59
2017-04-06T04:21:45.107Z,1004.63
2017-04-06T04:22:45.140Z,1004.61
2017-04-06T04:23:45.171Z,1004.64
2017-04-06T04:24:45.208Z,1004.65
2017-04-06T04:25:45.241Z,1004.61
2017-04-06T04:26:45.273Z,1004.62
2017-04-06T04:27:45.305Z,1004.63
2017-04-06T04:28:45.340Z,1004.71
2017-04-06T04:29:45.372Z,1004.71
2017-04-06T04:30:45.407Z,1004.75
2017-04-06T04:31:45.439Z,1004.72
2017-04-06T04:32:45.473Z,1004.75
2017-04-06T04:33:45.504Z,1004.74
2017-04-06T04:34:45.539Z,1004.71
2017-04-06T04:35:45.571Z,1004.8
2017-04-06T04:36:45.604Z,1004.8
2017-04-06T04:37:45.665Z,1004.81
2017-04-06T04:38:45.672Z,1004.85
2017-04-06T04:39:45.703Z,1004.82
2017-04-06T04:40:45.740Z,1004.84
2017-04-06T04:41:45.768Z,1004.84
2017-04-06T04:42:45.806Z,1004.87
2017-04-06T04:43:45.836Z,1004.93
2017-04-06T04:44:45.870Z,1004.99
2017-04-06T04:45:45.904Z,1005
2017-04-06T04:46:45.936Z,1005
2017-04-06T04:47:45.971Z,1005.04
2017-04-06T04:48:46.002Z,1004.96
2017-04-06T04:49:46.035Z,1005.01
2017-04-06T04:50:46.091Z,1004.99
2017-04-06T04:51:46.102Z,1005.08
2017-04-06T04:52:46.135Z,1005.05
2017-04-06T04:53:46.170Z,1005.07
2017-04-06T04:54:46.203Z,1005.04
2017-04-06T04:55:46.237Z,1005.05
2017-04-06T04:56:46.268Z,1005.08
2017-04-06T04:57:46.304Z,1005.05
2017-04-06T04:58:46.335Z,1005.06
2017-04-06T04:59:46.368Z,1005.08
2017-04-06T05:00:46.401Z,1005.07
2017-04-06T05:01:46.435Z,1005.15
2017-04-06T05:02:46.469Z,1005.13
2017-04-06T05:03:46.504Z,1005.15
2017-04-06T05:04:46.535Z,1005.13
2017-04-06T05:05:46.571Z,1005.19
2017-04-06T05:06:46.607Z,1005.16
2017-04-06T05:07:46.637Z,1005.16
2017-04-06T05:08:46.672Z,1005.13
2017-04-06T05:09:46.705Z,1005.13
2017-04-06T05:10:46.737Z,1005.2
2017-04-06T05:11:46.769Z,1005.15
2017-04-06T05:12:46.804Z,1005.23
2017-04-06T05:13:46.837Z,1005.18
2017-04-06T05:14:46.872Z,1005.27
2017-04-06T05:15:46.907Z,1005.18
2017-04-06T05:16:46.938Z,1005.22
2017-04-06T05:17:46.971Z,1005.2
2017-04-06T05:18:47.007Z,1005.22
2017-04-06T05:19:47.045Z,1005.26
2017-04-06T05:20:47.074Z,1005.24
2017-04-06T05:21:47.107Z,1005.27
2017-04-06T05:22:47.140Z,1005.31
2017-04-06T05:23:47.174Z,1005.3
2017-04-06T05:24:47.206Z,1005.29
2017-04-06T05:25:47.268Z,1005.3
2017-04-06T05:26:47.275Z,1005.32
2017-04-06T05:27:47.310Z,1005.34
2017-04-06T05:28:47.340Z,1005.28
2017-04-06T05:29:47.376Z,1005.37
2017-04-06T05:30:47.410Z,1005.35
2017-04-06T05:31:47.442Z,1005.34
2017-04-06T05:32:47.478Z,1005.36
2017-04-06T05:33:47.510Z,1005.38
2017-04-06T05:34:47.544Z,1005.33
2017-04-06T05:35:47.580Z,1005.35
2017-04-06T05:36:47.613Z,1005.37
2017-04-06T05:37:47.647Z,1005.36
2017-04-06T05:38:47.680Z,1005.37
2017-04-06T05:39:47.713Z,1005.4
2017-04-06T05:40:47.750Z,1005.35
2017-04-06T05:41:47.783Z,1005.41
2017-04-06T05:42:47.816Z,1005.37
2017-04-06T05:43:47.852Z,1005.43
2017-04-06T05:44:47.886Z,1005.5
2017-04-06T05:45:47.918Z,1005.48
2017-04-06T05:46:47.955Z,1005.49
2017-04-06T05:47:47.989Z,1005.54
2017-04-06T05:48:48.039Z,1005.54
2017-04-06T05:49:48.057Z,1005.57
2017-04-06T05:50:48.093Z,1005.53
2017-04-06T05:51:48.130Z,1005.54
2017-04-06T05:52:48.162Z,1005.62
2017-04-06T05:53:48.197Z,1005.59
2017-04-06T05:54:48.234Z,1005.55
2017-04-06T05:55:48.267Z,1005.6
2017-04-06T05:56:48.303Z,1005.63
2017-04-06T05:57:48.367Z,1005.61
2017-04-06T05:58:48.375Z,1005.69
2017-04-06T05:59:48.414Z,1005.7
2017-04-06T06:00:48.450Z,1005.74
2017-04-06T06:01:48.485Z,1005.68
2017-04-06T06:02:48.525Z,1005.77
2017-04-06T06:03:48.562Z,1005.79
2017-04-06T06:04:48.598Z,1005.78
2017-04-06T06:05:48.638Z,1005.72
2017-04-06T06:06:48.676Z,1005.77
2017-04-06T06:07:48.714Z,1005.79
2017-04-06T06:08:48.750Z,1005.83
2017-04-06T06:09:48.789Z,1005.82
2017-04-06T06:10:48.829Z,1005.76
2017-04-06T06:11:48.897Z,1005.82
2017-04-06T06:12:48.908Z,1005.75
2017-04-06T06:13:48.947Z,1005.8
2017-04-06T06:14:48.987Z,1005.82
2017-04-06T06:15:49.029Z,1005.86
2017-04-06T06:16:49.064Z,1005.81
2017-04-06T06:17:49.104Z,1005.83
2017-04-06T06:18:49.144Z,1005.75
2017-04-06T06:19:49.185Z,1005.8
2017-04-06T06:20:49.226Z,1005.82
2017-04-06T06:21:49.384Z,1005.88
2017-04-06T06:22:49.306Z,1005.89
2017-04-06T06:23:49.346Z,1005.86
2017-04-06T06:24:49.386Z,1005.81
2017-04-06T06:25:49.427Z,1005.87
2017-04-06T06:26:49.468Z,1005.87
2017-04-06T06:27:49.506Z,1005.87
2017-04-06T06:28:49.984Z,1005.8
2017-04-06T06:29:49.586Z,1005.87
2017-04-06T06:30:49.625Z,1005.88
2017-04-06T06:31:49.666Z,1005.86
2017-04-06T06:32:49.705Z,1005.8
2017-04-06T06:33:49.748Z,1005.85
2017-04-06T06:34:49.784Z,1005.84
2017-04-06T06:35:49.822Z,1005.82
2017-04-06T06:36:49.861Z,1005.82
2017-04-06T06:37:49.901Z,1005.96
2017-04-06T06:38:49.940Z,1005.81
2017-04-06T06:39:49.980Z,1005.8
2017-04-06T06:40:50.018Z,1005.85
2017-04-06T06:41:50.056Z,1005.8
2017-04-06T06:42:50.097Z,1005.84
2017-04-06T06:43:50.134Z,1005.86
2017-04-06T06:44:50.173Z,1005.81
2017-04-06T06:45:50.213Z,1005.9
2017-04-06T06:46:50.251Z,1005.92
2017-04-06T06:47:50.291Z,1005.97
2017-04-06T06:48:50.330Z,1005.96
2017-04-06T06:49:50.367Z,1005.93
2017-04-06T06:50:50.407Z,1005.96
2017-04-06T06:51:50.485Z,1006.01
2017-04-06T06:52:50.482Z,1006
2017-04-06T06:53:50.521Z,1005.99
2017-04-06T06:54:50.562Z,1005.9
2017-04-06T06:55:50.597Z,1005.96
2017-04-06T06:56:50.935Z,1005.96
2017-04-06T06:57:50.672Z,1005.99
2017-04-06T06:58:50.710Z,1006
2017-04-06T06:59:50.823Z,1006.03
2017-04-06T07:00:50.786Z,1005.91
2017-04-06T07:01:50.823Z,1006.02
2017-04-06T07:02:50.861Z,1006.07
2017-04-06T07:03:50.898Z,1006.05
2017-04-06T07:04:50.935Z,1006.05
2017-04-06T07:05:50.974Z,1006.09
2017-04-06T07:06:51.011Z,1006.09
2017-04-06T07:07:51.124Z,1006.13
2017-04-06T07:08:51.083Z,1006.2
2017-04-06T07:09:51.121Z,1006.14
2017-04-06T07:10:51.157Z,1006.17
2017-04-06T07:11:51.194Z,1006.19
2017-04-06T07:12:51.290Z,1006.15
2017-04-06T07:13:51.270Z,1006.24
2017-04-06T07:14:51.307Z,1006.25
2017-04-06T07:15:51.341Z,1006.23
2017-04-06T07:16:51.384Z,1006.3
2017-04-06T07:17:51.422Z,1006.36
2017-04-06T07:18:51.453Z,1006.33
2017-04-06T07:19:51.495Z,1006.33
2017-04-06T07:20:51.530Z,1006.39
2017-04-06T07:21:51.570Z,1006.35
2017-04-06T07:22:51.610Z,1006.37
2017-04-06T07:23:51.649Z,1006.35
2017-04-06T07:24:51.688Z,1006.33
2017-04-06T07:25:51.724Z,1006.38
2017-04-06T07:26:51.765Z,1006.44
2017-04-06T07:27:51.805Z,1006.5
2017-04-06T07:28:51.843Z,1006.39
2017-04-06T07:29:51.884Z,1006.41
2017-04-06T07:30:51.924Z,1006.4
2017-04-06T07:31:51.964Z,1006.39
2017-04-06T07:32:52.000Z,1006.47
2017-04-06T07:33:52.040Z,1006.43
2017-04-06T07:34:52.082Z,1006.46
2017-04-06T07:35:52.120Z,1006.44
2017-04-06T07:36:52.159Z,1006.43
2017-04-06T07:37:52.200Z,1006.48
2017-04-06T07:38:52.241Z,1006.41
2017-04-06T07:39:52.282Z,1006.46
2017-04-06T07:40:52.321Z,1006.45
2017-04-06T07:41:52.359Z,1006.41
2017-04-06T07:42:52.401Z,1006.38
2017-04-06T07:43:52.437Z,1006.38
2017-04-06T07:44:52.478Z,1006.32
2017-04-06T07:45:52.520Z,1006.4
2017-04-06T07:46:52.559Z,1006.3
2017-04-06T07:47:52.595Z,1006.25
2017-04-06T07:48:52.641Z,1006.35
2017-04-06T07:49:52.676Z,1006.31
2017-04-06T07:50:52.716Z,1006.38
2017-04-06T07:51:52.751Z,1006.37
2017-04-06T07:52:52.792Z,1006.42
2017-04-06T07:53:52.832Z,1006.41
2017-04-06T07:54:52.867Z,1006.4
2017-04-06T07:55:52.909Z,1006.4
2017-04-06T07:56:52.947Z,1006.44
2017-04-06T07:57:52.988Z,1006.56
2017-04-06T07:58:53.050Z,1006.56
2017-04-06T07:59:53.085Z,1006.56
2017-04-06T08:00:53.111Z,1006.46
2017-04-06T08:01:53.151Z,1006.47
2017-04-06T08:02:53.192Z,1006.52
2017-04-06T08:03:53.236Z,1006.54
2017-04-06T08:04:53.276Z,1006.5
2017-04-06T08:05:53.317Z,1006.51
2017-04-06T08:06:53.358Z,1006.57
2017-04-06T08:07:53.401Z,1006.63
2017-04-06T08:08:53.441Z,1006.63
2017-04-06T08:09:53.481Z,1006.73
2017-04-06T08:10:53.522Z,1006.69
2017-04-06T08:11:53.563Z,1006.64
2017-04-06T08:12:54.055Z,1006.8
2017-04-06T08:13:53.645Z,1006.66
2017-04-06T08:14:53.691Z,1006.78
2017-04-06T08:15:53.729Z,1006.87
2017-04-06T08:16:53.774Z,1006.72
2017-04-06T08:17:53.816Z,1006.8
2017-04-06T08:18:53.862Z,1006.79
2017-04-06T08:19:53.903Z,1006.7
2017-04-06T08:20:53.944Z,1006.76
2017-04-06T08:21:53.988Z,1006.8
2017-04-06T08:22:54.033Z,1006.76
2017-04-06T08:23:54.084Z,1006.84
2017-04-06T08:24:54.123Z,1006.8
2017-04-06T08:25:54.169Z,1006.85
2017-04-06T08:26:54.214Z,1006.83
2017-04-06T08:27:54.258Z,1006.78
2017-04-06T08:28:54.302Z,1006.84
2017-04-06T08:29:54.347Z,1006.8
2017-04-06T08:30:54.393Z,1006.89
2017-04-06T08:31:54.439Z,1006.96
2017-04-06T08:32:54.482Z,1006.85
2017-04-06T08:33:54.523Z,1006.89
2017-04-06T08:34:54.567Z,1006.92
2017-04-06T08:35:54.614Z,1006.95
2017-04-06T08:36:54.658Z,1006.91
2017-04-06T08:37:54.704Z,1006.94
2017-04-06T08:38:54.751Z,1006.94
2017-04-06T08:39:54.793Z,1006.95
2017-04-06T08:40:54.840Z,1006.88
2017-04-06T08:41:54.884Z,1006.94
2017-04-06T08:42:54.931Z,1006.95
2017-04-06T08:43:54.978Z,1006.93
2017-04-06T08:44:55.024Z,1006.91
2017-04-06T08:45:55.069Z,1007.06
2017-04-06T08:46:55.117Z,1007.04
2017-04-06T08:47:55.162Z,1007.02
2017-04-06T08:48:55.220Z,1007.02
2017-04-06T08:49:55.256Z,1007.09
2017-04-06T08:50:55.304Z,1007.17
2017-04-06T08:51:55.352Z,1007.1
2017-04-06T08:52:55.400Z,1007.11
2017-04-06T08:53:55.448Z,1007.19
2017-04-06T08:54:55.497Z,1007.13
2017-04-06T08:55:55.543Z,1007.17
2017-04-06T08:56:55.590Z,1007.21
2017-04-06T08:57:55.656Z,1007.06
2017-04-06T08:58:55.691Z,1007.09
2017-04-06T08:59:55.736Z,1007.1
2017-04-06T09:00:55.829Z,1007.17
2017-04-06T09:01:55.831Z,1007.26
2017-04-06T09:02:55.880Z,1007.26
2017-04-06T09:03:55.929Z,1007.23
2017-04-06T09:04:55.976Z,1007.19
2017-04-06T09:05:56.024Z,1007.18
2017-04-06T09:06:56.073Z,1007.17
2017-04-06T09:07:56.121Z,1007.23
2017-04-06T09:08:56.171Z,1007.04
2017-04-06T09:09:56.221Z,1007.23
2017-04-06T09:10:56.269Z,1007.05
2017-04-06T09:11:56.318Z,1007.18
2017-04-06T09:12:56.366Z,1007.14
2017-04-06T09:13:56.416Z,1007.22
2017-04-06T09:14:56.465Z,1007.21
2017-04-06T09:15:56.535Z,1007.29
2017-04-06T09:16:56.561Z,1007.28
2017-04-06T09:17:56.611Z,1007.25
2017-04-06T09:18:56.659Z,1007.24
2017-04-06T09:19:56.709Z,1007.27
2017-04-06T09:20:56.758Z,1007.22
2017-04-06T09:21:56.807Z,1007.2
2017-04-06T09:22:56.855Z,1007.35
2017-04-06T09:23:56.905Z,1007.34
2017-04-06T09:24:56.953Z,1007.33
2017-04-06T09:25:57.002Z,1007.34
2017-04-06T09:26:57.050Z,1007.18
2017-04-06T09:27:57.099Z,1007.29
2017-04-06T09:28:57.150Z,1007.28
2017-04-06T09:29:57.197Z,1007.29
2017-04-06T09:30:57.247Z,1007.23
2017-04-06T09:31:57.296Z,1007.21
2017-04-06T09:32:57.346Z,1007.26
2017-04-06T09:33:57.395Z,1007.29
2017-04-06T09:34:57.445Z,1007.33
2017-04-06T09:35:57.495Z,1007.35
2017-04-06T09:36:57.571Z,1007.35
2017-04-06T09:37:57.595Z,1007.35
2017-04-06T09:38:57.671Z,1007.33
2017-04-06T09:39:57.694Z,1007.22
2017-04-06T09:40:57.743Z,1007.29
2017-04-06T09:41:57.793Z,1007.32
2017-04-06T09:42:57.843Z,1007.4
2017-04-06T09:43:57.894Z,1007.39
2017-04-06T09:44:57.945Z,1007.25
2017-04-06T09:45:57.995Z,1007.33
2017-04-06T09:46:58.046Z,1007.35
2017-04-06T09:47:58.095Z,1007.31
2017-04-06T09:48:58.149Z,1007.32
2017-04-06T09:49:58.196Z,1007.23
2017-04-06T09:50:58.247Z,1007.41
2017-04-06T09:51:58.297Z,1007.42
2017-04-06T09:52:58.347Z,1007.34
2017-04-06T09:53:58.398Z,1007.36
2017-04-06T09:54:58.448Z,1007.32
2017-04-06T09:55:58.499Z,1007.14
2017-04-06T09:56:58.548Z,1007.19
2017-04-06T09:57:58.600Z,1007.32
2017-04-06T09:58:58.652Z,1007.33
2017-04-06T09:59:58.701Z,1007.36
2017-04-06T10:00:58.752Z,1007.31
2017-04-06T10:01:58.804Z,1007.35
2017-04-06T10:02:58.853Z,1007.47
2017-04-06T10:03:58.903Z,1007.41
2017-04-06T10:04:58.955Z,1007.4
2017-04-06T10:05:59.006Z,1007.45
2017-04-06T10:06:59.057Z,1007.31
2017-04-06T10:07:59.108Z,1007.44
2017-04-06T10:08:59.158Z,1007.48
2017-04-06T10:09:59.208Z,1007.52
2017-04-06T10:10:59.261Z,1007.51
2017-04-06T10:11:59.310Z,1007.53
2017-04-06T10:12:59.363Z,1007.53
2017-04-06T10:13:59.413Z,1007.54
2017-04-06T10:14:59.464Z,1007.51
2017-04-06T10:15:59.517Z,1007.46
2017-04-06T10:16:59.569Z,1007.54
2017-04-06T10:17:59.622Z,1007.5
2017-04-06T10:18:59.671Z,1007.51
2017-04-06T10:19:59.723Z,1007.51
2017-04-06T10:20:59.774Z,1007.47
2017-04-06T10:21:59.827Z,1007.6
2017-04-06T10:22:59.879Z,1007.47
2017-04-06T10:23:59.931Z,1007.53
2017-04-06T10:24:59.982Z,1007.53
2017-04-06T10:26:00.033Z,1007.52
2017-04-06T10:27:00.086Z,1007.51
2017-04-06T10:28:00.138Z,1007.44
2017-04-06T10:29:00.190Z,1007.53
2017-04-06T10:30:00.242Z,1007.52
2017-04-06T10:31:00.294Z,1007.39
2017-04-06T10:32:00.345Z,1007.51
2017-04-06T10:33:00.397Z,1007.44
2017-04-06T10:34:00.450Z,1007.55
2017-04-06T10:35:00.504Z,1007.44
2017-04-06T10:36:00.554Z,1007.37
2017-04-06T10:37:00.607Z,1007.43
2017-04-06T10:38:00.661Z,1007.34
2017-04-06T10:39:00.713Z,1007.45
2017-04-06T10:40:00.765Z,1007.43
2017-04-06T10:41:00.817Z,1007.54
2017-04-06T10:42:00.870Z,1007.47
2017-04-06T10:43:00.922Z,1007.42
2017-04-06T10:44:00.976Z,1007.45
2017-04-06T10:45:01.028Z,1007.42
2017-04-06T10:46:01.085Z,1007.43
2017-04-06T10:47:01.133Z,1007.26
2017-04-06T10:48:01.188Z,1007.25
2017-04-06T10:49:01.239Z,1007.24
2017-04-06T10:50:01.296Z,1007.18
2017-04-06T10:51:01.354Z,1007.35
2017-04-06T10:52:01.394Z,1007.2
2017-04-06T10:53:01.443Z,1007.28
2017-04-06T10:54:01.493Z,1007.48
2017-04-06T10:55:01.544Z,1007.39
2017-04-06T10:56:01.593Z,1007.42
2017-04-06T10:57:01.642Z,1007.35
2017-04-06T10:58:01.692Z,1007.32
2017-04-06T10:59:01.742Z,1007.34
2017-04-06T11:00:01.792Z,1007.4
2017-04-06T11:01:01.841Z,1007.5
2017-04-06T11:02:01.892Z,1007.38
2017-04-06T11:03:01.941Z,1007.34
2017-04-06T11:04:01.991Z,1007.5
2017-04-06T11:05:02.040Z,1007.44
2017-04-06T11:06:02.089Z,1007.42
2017-04-06T11:07:02.138Z,1007.19
2017-04-06T11:08:02.188Z,1007.43
2017-04-06T11:09:02.236Z,1007.45
2017-04-06T11:10:02.292Z,1007.4
2017-04-06T11:11:02.335Z,1007.35
2017-04-06T11:12:02.382Z,1007.23
2017-04-06T11:13:02.431Z,1007.26
2017-04-06T11:14:02.478Z,1007.19
2017-04-06T11:15:02.531Z,1007.22
2017-04-06T11:16:02.574Z,1007.24
2017-04-06T11:17:02.622Z,1007.21
2017-04-06T11:18:02.668Z,1007.26
2017-04-06T11:19:02.713Z,1007.2
2017-04-06T11:20:02.759Z,1007.44
2017-04-06T11:21:02.805Z,1007.5
2017-04-06T11:22:02.850Z,1007.34
2017-04-06T11:23:02.896Z,1007.3
2017-04-06T11:24:02.941Z,1007.25
2017-04-06T11:25:02.986Z,1007.33
2017-04-06T11:26:03.032Z,1007.3
2017-04-06T11:27:03.074Z,1007.35
2017-04-06T11:28:03.120Z,1007.35
2017-04-06T11:29:03.164Z,1007.28
2017-04-06T11:30:03.207Z,1007.31
2017-04-06T11:31:03.250Z,1007.24
2017-04-06T11:32:03.305Z,1007.4
2017-04-06T11:33:03.337Z,1007.32
2017-04-06T11:34:03.380Z,1007.31
2017-04-06T11:35:03.425Z,1007.23
2017-04-06T11:36:03.469Z,1007.26
2017-04-06T11:37:03.518Z,1007.46
2017-04-06T11:38:03.553Z,1007.51
2017-04-06T11:39:03.597Z,1007.45
2017-04-06T11:40:03.640Z,1007.42
2017-04-06T11:41:03.682Z,1007.35
2017-04-06T11:42:03.726Z,1007.36
2017-04-06T11:43:03.767Z,1007.25
2017-04-06T11:44:03.811Z,1007.31
2017-04-06T11:45:03.851Z,1007.43
2017-04-06T11:46:03.894Z,1007.44
2017-04-06T11:47:03.937Z,1007.47
2017-04-06T11:48:03.978Z,1007.46
2017-04-06T11:49:04.022Z,1007.39
2017-04-06T11:50:04.064Z,1007.43
2017-04-06T11:51:04.104Z,1007.39
2017-04-06T11:52:04.146Z,1007.34
2017-04-06T11:53:04.187Z,1007.34
2017-04-06T11:54:04.229Z,1007.32
2017-04-06T11:55:04.271Z,1007.29
2017-04-06T11:56:04.311Z,1007.34
2017-04-06T11:57:04.355Z,1007.32
2017-04-06T11:58:04.395Z,1007.2
2017-04-06T11:59:04.437Z,1007.22
2017-04-06T12:00:04.478Z,1007.32
2017-04-06T12:01:04.530Z,1007.4
2017-04-06T12:02:04.561Z,1007.28
2017-04-06T12:03:04.602Z,1007.3
2017-04-06T12:04:04.680Z,1007.28
2017-04-06T12:05:04.684Z,1007.18
2017-04-06T12:06:04.726Z,1007.16
2017-04-06T12:07:04.766Z,1007.19
2017-04-06T12:08:04.806Z,1007.18
2017-04-06T12:09:04.849Z,1007.14